sensor_id;sensor_type;location;lat;lon;timestamp;pressure;altitude;pressure_sealevel;temperature;humidity
68941;BME280;55982;51.476;7.552;2022-12-20T00:02:06;99727.47;;;11.04;100.00
68941;BME280;55982;51.476;7.552;2022-12-20T00:04:31;99709.00;;;11.07;100.00
68941;BME280;55982;51.476;7.552;2022-12-20T00:06:56;99698.53;;;11.07;100.00
68941;BME280;55982;51.476;7.552;2022-12-20T00:09:22;99711.69;;;11.06;100.00
68941;BME280;55982;51.476;7.552;2022-12-20T00:11:49;99712.53;;;11.06;100.00
68941;BME280;55982;51.476;7.552;2022-12-20T00:14:15;99719.34;;;11.11;100.00
68941;BME280;55982;51.476;7.552;2022-12-20T00:16:40;99717.88;;;11.03;100.00
68941;BME280;55982;51.476;7.552;2022-12-20T00:19:06;99710.59;;;11.12;100.00
68941;BME280;55982;51.476;7.552;2022-12-20T00:21:33;99708.00;;;11.12;100.00
68941;BME280;55982;51.476;7.552;2022-12-20T00:23:59;99703.78;;;11.07;100.00
68941;BME280;55982;51.476;7.552;2022-12-20T00:26:27;99709.00;;;11.07;100.00
68941;BME280;55982;51.476;7.552;2022-12-20T00:28:53;99708.59;;;11.18;100.00
68941;BME280;55982;51.476;7.552;2022-12-20T00:31:20;99703.34;;;11.20;100.00
68941;BME280;55982;51.476;7.552;2022-12-20T00:33:48;99699.78;;;11.21;100.00
68941;BME280;55982;51.476;7.552;2022-12-20T00:36:15;99694.44;;;11.24;100.00
68941;BME280;55982;51.476;7.552;2022-12-20T00:38:43;99680.44;;;11.25;100.00
68941;BME280;55982;51.476;7.552;2022-12-20T00:41:11;99678.75;;;11.24;100.00
68941;BME280;55982;51.476;7.552;2022-12-20T00:43:38;99675.31;;;11.22;100.00
68941;BME280;55982;51.476;7.552;2022-12-20T00:46:05;99677.16;;;11.20;100.00
68941;BME280;55982;51.476;7.552;2022-12-20T00:48:31;99668.44;;;11.19;100.00
68941;BME280;55982;51.476;7.552;2022-12-20T00:51:02;99674.69;;;11.15;100.00
68941;BME280;55982;51.476;7.552;2022-12-20T00:53:29;99668.59;;;11.15;100.00
68941;BME280;55982;51.476;7.552;2022-12-20T00:55:55;99666.19;;;11.08;100.00
68941;BME280;55982;51.476;7.552;2022-12-20T00:58:21;99652.31;;;11.06;100.00
68941;BME280;55982;51.476;7.552;2022-12-20T01:00:46;99660.94;;;11.10;100.00
68941;BME280;55982;51.476;7.552;2022-12-20T01:03:12;99667.41;;;11.23;100.00
68941;BME280;55982;51.476;7.552;2022-12-20T01:05:38;99656.06;;;11.23;100.00
68941;BME280;55982;51.476;7.552;2022-12-20T01:08:04;99670.88;;;11.24;100.00
68941;BME280;55982;51.476;7.552;2022-12-20T01:10:30;99660.94;;;11.10;100.00
68941;BME280;55982;51.476;7.552;2022-12-20T01:12:55;99651.41;;;11.07;100.00
68941;BME280;55982;51.476;7.552;2022-12-20T01:15:21;99663.47;;;11.12;100.00
68941;BME280;55982;51.476;7.552;2022-12-20T01:17:46;99660.75;;;11.15;100.00
68941;BME280;55982;51.476;7.552;2022-12-20T01:20:12;99677.25;;;11.17;100.00
68941;BME280;55982;51.476;7.552;2022-12-20T01:22:38;99681.75;;;11.13;100.00
68941;BME280;55982;51.476;7.552;2022-12-20T01:25:03;99693.53;;;11.25;100.00
68941;BME280;55982;51.476;7.552;2022-12-20T01:27:29;99701.59;;;11.19;100.00
68941;BME280;55982;51.476;7.552;2022-12-20T01:29:54;99701.72;;;11.16;100.00
68941;BME280;55982;51.476;7.552;2022-12-20T01:32:20;99694.78;;;11.15;100.00
68941;BME280;55982;51.476;7.552;2022-12-20T01:34:45;99684.88;;;10.99;100.00
68941;BME280;55982;51.476;7.552;2022-12-20T01:37:11;99674.53;;;10.96;100.00
68941;BME280;55982;51.476;7.552;2022-12-20T01:39:36;99678.16;;;10.92;100.00
68941;BME280;55982;51.476;7.552;2022-12-20T01:42:02;99678.25;;;10.89;100.00
68941;BME280;55982;51.476;7.552;2022-12-20T01:46:53;99669.75;;;10.84;100.00
68941;BME280;55982;51.476;7.552;2022-12-20T01:49:27;99666.31;;;10.82;100.00
68941;BME280;55982;51.476;7.552;2022-12-20T01:51:59;99658.34;;;10.85;100.00
68941;BME280;55982;51.476;7.552;2022-12-20T01:57:05;99660.00;;;10.88;100.00
68941;BME280;55982;51.476;7.552;2022-12-20T01:59:34;99660.13;;;10.85;100.00
68941;BME280;55982;51.476;7.552;2022-12-20T02:02:02;99659.28;;;10.84;100.00
68941;BME280;55982;51.476;7.552;2022-12-20T02:04:29;99650.09;;;10.73;100.00
68941;BME280;55982;51.476;7.552;2022-12-20T02:06:54;99647.94;;;10.61;100.00
68941;BME280;55982;51.476;7.552;2022-12-20T02:09:20;99644.78;;;10.51;100.00
68941;BME280;55982;51.476;7.552;2022-12-20T02:25:45;99634.44;;;10.48;100.00
68941;BME280;55982;51.476;7.552;2022-12-20T02:30:57;99625.28;;;10.37;100.00
68941;BME280;55982;51.476;7.552;2022-12-20T02:33:27;99620.91;;;10.37;100.00
68941;BME280;55982;51.476;7.552;2022-12-20T02:35:53;99605.31;;;10.34;100.00
68941;BME280;55982;51.476;7.552;2022-12-20T02:40:53;99608.94;;;10.30;100.00
68941;BME280;55982;51.476;7.552;2022-12-20T02:43:22;99605.09;;;10.40;100.00
68941;BME280;55982;51.476;7.552;2022-12-20T02:46:08;99608.50;;;10.42;100.00
68941;BME280;55982;51.476;7.552;2022-12-20T02:48:36;99618.06;;;10.43;100.00
68941;BME280;55982;51.476;7.552;2022-12-20T02:51:03;99624.19;;;10.42;100.00
68941;BME280;55982;51.476;7.552;2022-12-20T02:53:31;99625.81;;;10.46;100.00
68941;BME280;55982;51.476;7.552;2022-12-20T02:56:02;99605.75;;;10.47;100.00
68941;BME280;55982;51.476;7.552;2022-12-20T02:58:37;99594.75;;;10.37;100.00
68941;BME280;55982;51.476;7.552;2022-12-20T03:01:10;99601.69;;;10.38;100.00
68941;BME280;55982;51.476;7.552;2022-12-20T03:03:38;99605.31;;;10.34;100.00
68941;BME280;55982;51.476;7.552;2022-12-20T03:06:04;99598.38;;;10.33;100.00
68941;BME280;55982;51.476;7.552;2022-12-20T03:08:29;99593.03;;;10.36;100.00
68941;BME280;55982;51.476;7.552;2022-12-20T03:10:55;99590.34;;;10.38;100.00
68941;BME280;55982;51.476;7.552;2022-12-20T03:13:22;99601.69;;;10.38;100.00
68941;BME280;55982;51.476;7.552;2022-12-20T03:15:48;99593.91;;;10.37;100.00
68941;BME280;55982;51.476;7.552;2022-12-20T03:18:13;99597.19;;;10.42;100.00
68941;BME280;55982;51.476;7.552;2022-12-20T03:20:39;99612.34;;;10.32;100.00
68941;BME280;55982;51.476;7.552;2022-12-20T03:23:05;99624.41;;;10.36;100.00
68941;BME280;55982;51.476;7.552;2022-12-20T03:25:30;99626.13;;;10.37;100.00
68941;BME280;55982;51.476;7.552;2022-12-20T03:27:56;99629.56;;;10.39;100.00
68941;BME280;55982;51.476;7.552;2022-12-20T03:30:21;99623.69;;;10.33;100.00
68941;BME280;55982;51.476;7.552;2022-12-20T03:32:47;99633.19;;;10.35;100.00
68941;BME280;55982;51.476;7.552;2022-12-20T03:35:13;99625.44;;;10.32;100.00
68941;BME280;55982;51.476;7.552;2022-12-20T03:37:38;99632.19;;;10.38;100.00
68941;BME280;55982;51.476;7.552;2022-12-20T03:40:04;99633.28;;;10.32;100.00
68941;BME280;55982;51.476;7.552;2022-12-20T03:42:30;99630.06;;;10.24;100.00
68941;BME280;55982;51.476;7.552;2022-12-20T03:44:55;99630.50;;;10.12;100.00
68941;BME280;55982;51.476;7.552;2022-12-20T03:47:20;99618.50;;;10.05;100.00
68941;BME280;55982;51.476;7.552;2022-12-20T03:49:46;99617.94;;;9.97;100.00
68941;BME280;55982;51.476;7.552;2022-12-20T03:52:12;99610.94;;;9.97;100.00
68941;BME280;55982;51.476;7.552;2022-12-20T03:54:37;99608.38;;;9.96;100.00
68941;BME280;55982;51.476;7.552;2022-12-20T03:57:03;99605.69;;;9.97;100.00
68941;BME280;55982;51.476;7.552;2022-12-20T03:59:28;99607.50;;;9.97;100.00
68941;BME280;55982;51.476;7.552;2022-12-20T04:01:53;99610.19;;;9.94;100.00
68941;BME280;55982;51.476;7.552;2022-12-20T04:04:19;99602.47;;;9.91;100.00
68941;BME280;55982;51.476;7.552;2022-12-20T04:06:44;99604.28;;;9.89;100.00
68941;BME280;55982;51.476;7.552;2022-12-20T04:09:10;99601.47;;;9.95;100.00
68941;BME280;55982;51.476;7.552;2022-12-20T04:11:35;99598.03;;;9.93;100.00
68941;BME280;55982;51.476;7.552;2022-12-20T04:14:00;99597.91;;;9.96;100.00
68941;BME280;55982;51.476;7.552;2022-12-20T04:16:28;99594.09;;;10.06;100.00
68941;BME280;55982;51.476;7.552;2022-12-20T04:18:53;99596.91;;;10.00;100.00
68941;BME280;55982;51.476;7.552;2022-12-20T04:21:26;99602.19;;;9.98;100.00
68941;BME280;55982;51.476;7.552;2022-12-20T04:23:52;99584.06;;;9.94;100.00
68941;BME280;55982;51.476;7.552;2022-12-20T04:26:18;99587.78;;;9.87;100.00
68941;BME280;55982;51.476;7.552;2022-12-20T04:28:43;99585.31;;;9.82;100.00
68941;BME280;55982;51.476;7.552;2022-12-20T04:31:09;99588.88;;;9.80;100.00
68941;BME280;55982;51.476;7.552;2022-12-20T04:33:34;99577.53;;;9.81;100.00
68941;BME280;55982;51.476;7.552;2022-12-20T04:36:00;99592.41;;;9.79;100.00
68941;BME280;55982;51.476;7.552;2022-12-20T04:38:25;99598.66;;;9.75;100.00
68941;BME280;55982;51.476;7.552;2022-12-20T04:40:52;99602.25;;;9.71;100.00
68941;BME280;55982;51.476;7.552;2022-12-20T04:43:18;99591.72;;;9.74;100.00
68941;BME280;55982;51.476;7.552;2022-12-20T04:45:44;99595.44;;;9.67;100.00
68941;BME280;55982;51.476;7.552;2022-12-20T04:48:11;99598.16;;;9.64;100.00
68941;BME280;55982;51.476;7.552;2022-12-20T04:50:37;99589.59;;;9.59;100.00
68941;BME280;55982;51.476;7.552;2022-12-20T04:53:02;99584.53;;;9.54;100.00
68941;BME280;55982;51.476;7.552;2022-12-20T04:55:46;99586.44;;;9.49;100.00
68941;BME280;55982;51.476;7.552;2022-12-20T04:58:11;99592.44;;;9.53;100.00
68941;BME280;55982;51.476;7.552;2022-12-20T05:00:37;99578.66;;;9.48;100.00
68941;BME280;55982;51.476;7.552;2022-12-20T05:03:02;99580.25;;;9.52;100.00
68941;BME280;55982;51.476;7.552;2022-12-20T05:05:28;99580.16;;;9.55;100.00
68941;BME280;55982;51.476;7.552;2022-12-20T05:07:54;99575.03;;;9.52;100.00
68941;BME280;55982;51.476;7.552;2022-12-20T05:10:19;99575.03;;;9.52;100.00
68941;BME280;55982;51.476;7.552;2022-12-20T05:12:45;99576.97;;;9.47;100.00
68941;BME280;55982;51.476;7.552;2022-12-20T05:15:11;99575.34;;;9.43;100.00
68941;BME280;55982;51.476;7.552;2022-12-20T05:17:36;99572.13;;;9.35;100.00
68941;BME280;55982;51.476;7.552;2022-12-20T05:20:03;99567.03;;;9.32;100.00
68941;BME280;55982;51.476;7.552;2022-12-20T05:22:28;99573.81;;;9.37;100.00
68941;BME280;55982;51.476;7.552;2022-12-20T05:25:12;99573.00;;;9.35;100.00
68941;BME280;55982;51.476;7.552;2022-12-20T05:27:56;99565.09;;;9.37;100.00
68941;BME280;55982;51.476;7.552;2022-12-20T05:30:24;99573.00;;;9.35;100.00
68941;BME280;55982;51.476;7.552;2022-12-20T05:32:49;99569.63;;;9.32;100.00
68941;BME280;55982;51.476;7.552;2022-12-20T05:35:15;99571.31;;;9.33;100.00
68941;BME280;55982;51.476;7.552;2022-12-20T05:37:40;99568.59;;;9.36;100.00
68941;BME280;55982;51.476;7.552;2022-12-20T05:40:06;99557.28;;;9.37;100.00
68941;BME280;55982;51.476;7.552;2022-12-20T05:42:31;99554.47;;;9.43;100.00
68941;BME280;55982;51.476;7.552;2022-12-20T05:44:57;99553.56;;;9.44;100.00
68941;BME280;55982;51.476;7.552;2022-12-20T05:47:22;99558.81;;;9.42;100.00
68941;BME280;55982;51.476;7.552;2022-12-20T05:49:49;99549.88;;;9.49;100.00
68941;BME280;55982;51.476;7.552;2022-12-20T05:52:14;99543.03;;;9.47;100.00
68941;BME280;55982;51.476;7.552;2022-12-20T05:54:39;99536.06;;;9.46;100.00
68941;BME280;55982;51.476;7.552;2022-12-20T05:57:05;99536.00;;;9.49;100.00
68941;BME280;55982;51.476;7.552;2022-12-20T05:59:30;99546.44;;;9.49;100.00
68941;BME280;55982;51.476;7.552;2022-12-20T06:01:55;99550.66;;;9.53;100.00
68941;BME280;55982;51.476;7.552;2022-12-20T06:04:21;99547.13;;;9.54;100.00
68941;BME280;55982;51.476;7.552;2022-12-20T06:06:46;99549.59;;;9.58;100.00
68941;BME280;55982;51.476;7.552;2022-12-20T06:09:12;99545.19;;;9.59;100.00
68941;BME280;55982;51.476;7.552;2022-12-20T06:11:37;99541.59;;;9.63;100.00
68941;BME280;55982;51.476;7.552;2022-12-20T06:14:02;99536.28;;;9.66;100.00
68941;BME280;55982;51.476;7.552;2022-12-20T06:16:28;99536.38;;;9.63;100.00
68941;BME280;55982;51.476;7.552;2022-12-20T06:18:53;99534.56;;;9.65;100.00
68941;BME280;55982;51.476;7.552;2022-12-20T06:21:19;99540.50;;;9.70;100.00
68941;BME280;55982;51.476;7.552;2022-12-20T06:23:44;99537.88;;;9.70;100.00
68941;BME280;55982;51.476;7.552;2022-12-20T06:26:09;99537.69;;;9.76;100.00
68941;BME280;55982;51.476;7.552;2022-12-20T06:28:35;99537.63;;;9.77;100.00
68941;BME280;55982;51.476;7.552;2022-12-20T06:31:08;99528.91;;;9.77;100.00
68941;BME280;55982;51.476;7.552;2022-12-20T06:33:34;99534.03;;;9.80;100.00
68941;BME280;55982;51.476;7.552;2022-12-20T06:35:59;99536.38;;;9.87;100.00
68941;BME280;55982;51.476;7.552;2022-12-20T06:38:24;99530.31;;;9.87;100.00
68941;BME280;55982;51.476;7.552;2022-12-20T06:40:50;99540.31;;;9.99;100.00
68941;BME280;55982;51.476;7.552;2022-12-20T06:43:15;99537.03;;;9.94;100.00
68941;BME280;55982;51.476;7.552;2022-12-20T06:45:41;99542.38;;;9.91;100.00
68941;BME280;55982;51.476;7.552;2022-12-20T06:48:07;99531.72;;;9.97;100.00
68941;BME280;55982;51.476;7.552;2022-12-20T06:50:32;99540.44;;;9.96;100.00
68941;BME280;55982;51.476;7.552;2022-12-20T06:52:57;99529.91;;;9.97;100.00
68941;BME280;55982;51.476;7.552;2022-12-20T06:55:23;99518.31;;;10.06;100.00
68941;BME280;55982;51.476;7.552;2022-12-20T06:57:48;99531.25;;;10.09;100.00
68941;BME280;55982;51.476;7.552;2022-12-20T07:00:14;99511.25;;;10.08;100.00
68941;BME280;55982;51.476;7.552;2022-12-20T07:02:39;99510.47;;;10.06;100.00
68941;BME280;55982;51.476;7.552;2022-12-20T07:05:05;99496.47;;;10.07;100.00
68941;BME280;55982;51.476;7.552;2022-12-20T07:07:31;99497.22;;;10.12;100.00
68941;BME280;55982;51.476;7.552;2022-12-20T07:09:56;99502.56;;;10.07;100.00
68941;BME280;55982;51.476;7.552;2022-12-20T07:12:22;99494.66;;;10.09;100.00
68941;BME280;55982;51.476;7.552;2022-12-20T07:14:48;99512.94;;;10.09;100.00
68941;BME280;55982;51.476;7.552;2022-12-20T07:17:13;99510.34;;;10.09;100.00
68941;BME280;55982;51.476;7.552;2022-12-20T07:19:39;99504.25;;;10.10;100.00
68941;BME280;55982;51.476;7.552;2022-12-20T07:22:05;99515.50;;;10.12;100.00
68941;BME280;55982;51.476;7.552;2022-12-20T07:24:31;99511.22;;;10.09;100.00
68941;BME280;55982;51.476;7.552;2022-12-20T07:26:57;99501.63;;;10.10;100.00
68941;BME280;55982;51.476;7.552;2022-12-20T07:29:22;99500.72;;;10.11;100.00
68941;BME280;55982;51.476;7.552;2022-12-20T07:31:48;99503.31;;;10.11;100.00
68941;BME280;55982;51.476;7.552;2022-12-20T07:34:13;99498.00;;;10.14;100.00
68941;BME280;55982;51.476;7.552;2022-12-20T07:36:39;99496.19;;;10.16;100.00
68941;BME280;55982;51.476;7.552;2022-12-20T07:39:04;99494.59;;;10.12;100.00
68941;BME280;55982;51.476;7.552;2022-12-20T07:41:30;99485.50;;;10.22;100.00
68941;BME280;55982;51.476;7.552;2022-12-20T07:43:55;99495.00;;;10.25;100.00
68941;BME280;55982;51.476;7.552;2022-12-20T07:46:23;99494.25;;;10.21;100.00
68941;BME280;55982;51.476;7.552;2022-12-20T07:48:48;99499.25;;;10.27;100.00
68941;BME280;55982;51.476;7.552;2022-12-20T07:51:17;99479.22;;;10.28;100.00
68941;BME280;55982;51.476;7.552;2022-12-20T07:53:47;99489.47;;;10.32;100.00
68941;BME280;55982;51.476;7.552;2022-12-20T07:56:15;99498.03;;;10.36;100.00
68941;BME280;55982;51.476;7.552;2022-12-20T07:58:42;99492.88;;;10.34;100.00
68941;BME280;55982;51.476;7.552;2022-12-20T08:01:09;99486.75;;;10.35;100.00
68941;BME280;55982;51.476;7.552;2022-12-20T08:03:43;99499.47;;;10.44;100.00
68941;BME280;55982;51.476;7.552;2022-12-20T08:06:10;99486.97;;;10.52;100.00
68941;BME280;55982;51.476;7.552;2022-12-20T08:08:39;99482.41;;;10.57;100.00
68941;BME280;55982;51.476;7.552;2022-12-20T08:11:07;99471.84;;;10.60;100.00
68941;BME280;55982;51.476;7.552;2022-12-20T08:13:34;99472.56;;;10.64;100.00
68941;BME280;55982;51.476;7.552;2022-12-20T08:16:00;99477.28;;;10.76;100.00
68941;BME280;55982;51.476;7.552;2022-12-20T08:18:25;99474.44;;;10.82;100.00
68941;BME280;55982;51.476;7.552;2022-12-20T08:20:51;99487.47;;;10.83;100.00
68941;BME280;55982;51.476;7.552;2022-12-20T08:23:16;99494.34;;;10.86;100.00
68941;BME280;55982;51.476;7.552;2022-12-20T08:25:43;99490.22;;;10.80;100.00
68941;BME280;55982;51.476;7.552;2022-12-20T08:28:09;99490.34;;;10.77;100.00
68941;BME280;55982;51.476;7.552;2022-12-20T08:30:34;99504.47;;;10.73;100.00
68941;BME280;55982;51.476;7.552;2022-12-20T08:32:59;99494.88;;;10.72;100.00
68941;BME280;55982;51.476;7.552;2022-12-20T08:35:25;99495.69;;;10.74;100.00
68941;BME280;55982;51.476;7.552;2022-12-20T08:37:51;99485.13;;;10.77;100.00
68941;BME280;55982;51.476;7.552;2022-12-20T08:40:17;99485.94;;;10.78;100.00
68941;BME280;55982;51.476;7.552;2022-12-20T08:42:43;99488.75;;;10.73;100.00
68941;BME280;55982;51.476;7.552;2022-12-20T08:45:09;99473.16;;;10.70;100.00
68941;BME280;55982;51.476;7.552;2022-12-20T08:47:34;99471.56;;;10.66;100.00
68941;BME280;55982;51.476;7.552;2022-12-20T08:50:00;99478.41;;;10.70;100.00
68941;BME280;55982;51.476;7.552;2022-12-20T08:52:27;99469.53;;;10.74;100.00
68941;BME280;55982;51.476;7.552;2022-12-20T08:54:52;99467.94;;;10.70;100.00
68941;BME280;55982;51.476;7.552;2022-12-20T08:57:18;99464.28;;;10.74;100.00
68941;BME280;55982;51.476;7.552;2022-12-20T08:59:43;99454.31;;;10.84;100.00
68941;BME280;55982;51.476;7.552;2022-12-20T09:02:09;99452.97;;;10.95;100.00
68941;BME280;55982;51.476;7.552;2022-12-20T09:04:34;99448.03;;;11.10;100.00
68941;BME280;55982;51.476;7.552;2022-12-20T09:06:59;99464.06;;;11.22;100.00
68941;BME280;55982;51.476;7.552;2022-12-20T09:09:25;99459.63;;;11.24;100.00
68941;BME280;55982;51.476;7.552;2022-12-20T09:11:50;99457.38;;;11.15;100.00
68941;BME280;55982;51.476;7.552;2022-12-20T09:14:17;99452.88;;;11.19;100.00
68941;BME280;55982;51.476;7.552;2022-12-20T09:16:42;99457.31;;;11.17;100.00
68941;BME280;55982;51.476;7.552;2022-12-20T09:19:11;99453.66;;;11.21;100.00
68941;BME280;55982;51.476;7.552;2022-12-20T09:21:36;99456.97;;;11.26;100.00
68941;BME280;55982;51.476;7.552;2022-12-20T09:24:02;99449.16;;;11.24;100.00
68941;BME280;55982;51.476;7.552;2022-12-20T09:26:27;99457.22;;;11.20;100.00
68941;BME280;55982;51.476;7.552;2022-12-20T09:28:53;99464.13;;;11.21;100.00
68941;BME280;55982;51.476;7.552;2022-12-20T09:31:21;99454.44;;;11.23;100.00
68941;BME280;55982;51.476;7.552;2022-12-20T09:33:47;99464.81;;;11.26;100.00
68941;BME280;55982;51.476;7.552;2022-12-20T09:36:17;99458.41;;;11.33;100.00
68941;BME280;55982;51.476;7.552;2022-12-20T09:38:43;99459.97;;;11.37;100.00
68941;BME280;55982;51.476;7.552;2022-12-20T09:41:21;99452.75;;;11.42;100.00
68941;BME280;55982;51.476;7.552;2022-12-20T09:43:49;99465.94;;;11.40;100.00
68941;BME280;55982;51.476;7.552;2022-12-20T09:46:15;99455.31;;;11.43;100.00
68941;BME280;55982;51.476;7.552;2022-12-20T09:48:41;99454.59;;;11.40;100.00
68941;BME280;55982;51.476;7.552;2022-12-20T09:51:28;99463.38;;;11.39;100.00
68941;BME280;55982;51.476;7.552;2022-12-20T09:56:50;99464.22;;;11.39;100.00
68941;BME280;55982;51.476;7.552;2022-12-20T09:59:20;99452.75;;;11.42;100.00
68941;BME280;55982;51.476;7.552;2022-12-20T10:01:47;99460.50;;;11.45;100.00
68941;BME280;55982;51.476;7.552;2022-12-20T10:04:26;99460.38;;;11.48;100.00
68941;BME280;55982;51.476;7.552;2022-12-20T10:10:02;99464.56;;;11.52;100.00
68941;BME280;55982;51.476;7.552;2022-12-20T10:12:44;99455.66;;;11.56;100.00
68941;BME280;55982;51.476;7.552;2022-12-20T10:24:02;99446.22;;;11.72;100.00
68941;BME280;55982;51.476;7.552;2022-12-20T10:26:29;99446.69;;;11.81;100.00
68941;BME280;55982;51.476;7.552;2022-12-20T10:28:56;99437.66;;;11.88;100.00
68941;BME280;55982;51.476;7.552;2022-12-20T10:31:22;99443.31;;;11.98;100.00
68941;BME280;55982;51.476;7.552;2022-12-20T10:33:48;99432.41;;;12.07;100.00
68941;BME280;55982;51.476;7.552;2022-12-20T10:36:27;99416.69;;;12.07;100.00
68941;BME280;55982;51.476;7.552;2022-12-20T10:38:57;99411.16;;;12.13;100.00
68941;BME280;55982;51.476;7.552;2022-12-20T10:41:49;99412.44;;;12.05;100.00
68941;BME280;55982;51.476;7.552;2022-12-20T10:46:47;99404.50;;;12.06;100.00
68941;BME280;55982;51.476;7.552;2022-12-20T10:51:56;99378.06;;;11.92;100.00
68941;BME280;55982;51.476;7.552;2022-12-20T10:54:28;99380.97;;;11.86;100.00
68941;BME280;55982;51.476;7.552;2022-12-20T10:56:57;99378.56;;;12.00;100.00
68941;BME280;55982;51.476;7.552;2022-12-20T10:59:44;99374.47;;;12.13;100.00
68941;BME280;55982;51.476;7.552;2022-12-20T11:05:03;99374.50;;;12.30;100.00
68941;BME280;55982;51.476;7.552;2022-12-20T11:07:32;99371.59;;;12.36;100.00
68941;BME280;55982;51.476;7.552;2022-12-20T11:10:00;99364.34;;;12.41;100.00
68941;BME280;55982;51.476;7.552;2022-12-20T11:12:25;99367.47;;;12.49;100.00
68941;BME280;55982;51.476;7.552;2022-12-20T11:15:08;99359.13;;;12.41;100.00
68941;BME280;55982;51.476;7.552;2022-12-20T11:17:42;99367.75;;;12.43;100.00
68941;BME280;55982;51.476;7.552;2022-12-20T11:23:29;99359.31;;;12.55;100.00
68941;BME280;55982;51.476;7.552;2022-12-20T11:34:10;99348.38;;;12.99;100.00
68941;BME280;55982;51.476;7.552;2022-12-20T11:40:36;99346.88;;;13.12;100.00
68941;BME280;55982;51.476;7.552;2022-12-20T11:48:06;99348.75;;;13.10;100.00
68941;BME280;55982;51.476;7.552;2022-12-20T11:51:03;99330.94;;;12.98;100.00
68941;BME280;55982;51.476;7.552;2022-12-20T11:56:22;99330.47;;;12.89;100.00
68941;BME280;55982;51.476;7.552;2022-12-20T11:58:50;99321.50;;;12.94;100.00
68941;BME280;55982;51.476;7.552;2022-12-20T12:01:24;99316.88;;;12.99;100.00
68941;BME280;55982;51.476;7.552;2022-12-20T12:06:41;99321.50;;;12.94;100.00
68941;BME280;55982;51.476;7.552;2022-12-20T12:09:23;99328.91;;;12.85;100.00
68941;BME280;55982;51.476;7.552;2022-12-20T12:17:20;99314.81;;;12.88;100.00
68941;BME280;55982;51.476;7.552;2022-12-20T12:19:49;99301.13;;;12.81;100.00
68941;BME280;55982;51.476;7.552;2022-12-20T12:22:23;99299.56;;;12.77;100.00
68941;BME280;55982;51.476;7.552;2022-12-20T12:24:55;99313.84;;;12.72;100.00
68941;BME280;55982;51.476;7.552;2022-12-20T12:27:24;99303.59;;;12.67;100.00
68941;BME280;55982;51.476;7.552;2022-12-20T12:29:52;99299.91;;;12.71;100.00
68941;BME280;55982;51.476;7.552;2022-12-20T12:32:29;99297.50;;;12.67;100.00
68941;BME280;55982;51.476;7.552;2022-12-20T12:43:53;99302.81;;;12.48;100.00
68941;BME280;55982;51.476;7.552;2022-12-20T12:46:27;99303.25;;;12.39;100.00
68941;BME280;55982;51.476;7.552;2022-12-20T12:48:58;99305.25;;;12.34;100.00
68941;BME280;55982;51.476;7.552;2022-12-20T12:51:33;99311.50;;;12.32;100.00
68941;BME280;55982;51.476;7.552;2022-12-20T12:54:36;99310.97;;;12.25;100.00
68941;BME280;55982;51.476;7.552;2022-12-20T12:57:14;99301.84;;;12.32;100.00
68941;BME280;55982;51.476;7.552;2022-12-20T12:59:45;99291.38;;;12.32;100.00
68941;BME280;55982;51.476;7.552;2022-12-20T13:07:27;99287.06;;;12.31;100.00
68941;BME280;55982;51.476;7.552;2022-12-20T13:09:55;99295.28;;;12.24;100.00
68941;BME280;55982;51.476;7.552;2022-12-20T13:17:49;99288.66;;;12.34;100.00
68941;BME280;55982;51.476;7.552;2022-12-20T13:20:24;99291.53;;;12.29;100.00
68941;BME280;55982;51.476;7.552;2022-12-20T13:25:40;99302.16;;;12.26;100.00
68941;BME280;55982;51.476;7.552;2022-12-20T13:30:41;99302.81;;;12.13;100.00
68941;BME280;55982;51.476;7.552;2022-12-20T13:44:09;99304.81;;;11.70;100.00
68941;BME280;55982;51.476;7.552;2022-12-20T13:47:03;99311.81;;;11.70;100.00
68941;BME280;55982;51.476;7.552;2022-12-20T13:49:35;99305.91;;;11.65;100.00
68941;BME280;55982;51.476;7.552;2022-12-20T13:52:23;99291.94;;;11.46;100.00
68941;BME280;55982;51.476;7.552;2022-12-20T13:54:54;99302.41;;;11.27;100.00
68941;BME280;55982;51.476;7.552;2022-12-20T13:57:38;99291.69;;;11.13;100.00
68941;BME280;55982;51.476;7.552;2022-12-20T14:00:11;99291.88;;;11.08;100.00
68941;BME280;55982;51.476;7.552;2022-12-20T14:02:40;99285.84;;;11.06;100.00
68941;BME280;55982;51.476;7.552;2022-12-20T14:07:37;99279.56;;;11.11;100.00
68941;BME280;55982;51.476;7.552;2022-12-20T14:10:16;99284.00;;;11.08;100.00
68941;BME280;55982;51.476;7.552;2022-12-20T14:12:44;99290.78;;;11.14;100.00
68941;BME280;55982;51.476;7.552;2022-12-20T14:15:28;99285.31;;;11.19;100.00
68941;BME280;55982;51.476;7.552;2022-12-20T14:17:54;99284.41;;;11.20;100.00
68941;BME280;55982;51.476;7.552;2022-12-20T14:20:31;99283.41;;;11.22;100.00
68941;BME280;55982;51.476;7.552;2022-12-20T14:23:09;99286.09;;;11.21;100.00
68941;BME280;55982;51.476;7.552;2022-12-20T14:25:36;99291.34;;;11.21;100.00
68941;BME280;55982;51.476;7.552;2022-12-20T14:28:14;99293.16;;;11.19;100.00
68941;BME280;55982;51.476;7.552;2022-12-20T14:30:41;99292.31;;;11.18;100.00
68941;BME280;55982;51.476;7.552;2022-12-20T14:33:17;99296.06;;;11.13;100.00
68941;BME280;55982;51.476;7.552;2022-12-20T14:35:47;99294.56;;;11.07;100.00
68941;BME280;55982;51.476;7.552;2022-12-20T14:38:24;99296.31;;;11.06;100.00
68941;BME280;55982;51.476;7.552;2022-12-20T14:40:52;99300.81;;;11.04;100.00
68941;BME280;55982;51.476;7.552;2022-12-20T14:43:26;99299.16;;;11.02;100.00
68941;BME280;55982;51.476;7.552;2022-12-20T14:46:16;99299.34;;;10.97;100.00
68941;BME280;55982;51.476;7.552;2022-12-20T14:48:43;99295.03;;;10.96;100.00
68941;BME280;55982;51.476;7.552;2022-12-20T14:51:09;99294.63;;;10.85;100.00
68941;BME280;55982;51.476;7.552;2022-12-20T14:53:35;99302.75;;;10.79;100.00
68941;BME280;55982;51.476;7.552;2022-12-20T14:56:01;99295.03;;;10.76;100.00